EmailTwitter


Observations de surface / France / LFBO (07630)

Régions: Québec | Canada | États-Unis | Europe | France | UK | Ailleurs
Station
Affichage
Infos & localisation pour LFBO (07630) | Aide pour décoder les METARs

Observations prises le 2018-11-16 à 11H00 UTC à TOULOUSE/BLAGNAC, FR (LFBO)

Etat du ciel: partiellement nuageux.

Température: 18.0 Celsius

Point de rosée: 12.0 Celsius

Humidité relative: 68%

Vents: Sud-est à 11 km/h ou 6 noeuds.

Pression au niveau moyen de la mer: 102.10 kilopascals.

Visibilité horizontale: 6.21 milles terrestres ou 9.94 kilomètres.

Hauteur du plafond: 610 mètres ( 2000 pieds ).

Observation METAR:

LFBO 161100Z AUTO 12006KT 090V150 9999 BKN020 18/12 Q1021 NOSIG=